Decoded Metar for KUSE ( in ) (IATA:) | Meteo·Mobile Aviation Weather
aviador You're here:

KUSE Decoded Metar

in
Report Time2018-10-19 08:50:00
UTC Time2018-10-19 08:54:39
Flight Rules vfr VFR
Wind230° at 07 kt
W.Decomp.*RWY 27: 5.4 kt HW 4.5 kt LCW
RWY 18: 4.5 kt HW 5.4 kt RCW
W.Rank230° ranks 2
Current wind is below 230° avg. (9.5)
Visibility9999 m
Phenomena:N/A
Clouds:N/A
Expected CloudBase > 1,600 ft AGL from Temp-Dew spread
CeilingNone
Temp04°C
Dew Point00°C (75% RH)
AAT-0.5°C
QNH1025 hPa
Raw Report
KUSE 190850Z AUTO 23007KT 10SM CLR 04/00 A3027 RMK AO2=

Extra information for KUSE:More info

Social comments